Rockwell Springs, New York
Current Conditions -  °F | °C
As of 10:54 AM on Wednesday 22 Oct 2014 (Local Time) from KSYR Reporting Station
Overcast Overcast  
Wind Chill: 50°   Ceiling: 3100
Heat Index: 50°   Visibility: 10mi
Dew Point: 45°   Wind: 9mph
Humidity: 83%   Direction: 330°NNW
Pressure: 30.15"   Gusts: NA
Location:  42.9377°N, 76.1727°W
Report Text: KSYR 221454Z 33008KT 10SM SCT016 BKN031 OVC050 10/07 A3015 RMK AO2 SLP206 T01000072
Loading
Personal Weather Stations






























Interactive Weather Map
Tropical Storm Tracking
New forecast layout! Learn more

10-Day Weather Forecast

Advertisements
Track Severe Weather on mobile